Time;durP1;ratioP1;P1;durP2;ratioP2;P2;SDS_P1;SDS_P2;PMS_P1;PMS_P2;Temp;Humidity;BMP_temperature;BMP_pressure;BME280_temperature;BME280_humidity;BME280_pressure;Samples;Min_cycle;Max_cycle;Signal;HPM_P1;HPM_P2
2022/08/30 00:03:09;;;;;;;4.13;3.00;;;15.00;99.90;;;;;;5015944;28;20045;-64
2022/08/30 00:05:34;;;;;;;4.57;2.90;;;15.10;99.90;;;;;;5033337;28;20546;-64
2022/08/30 00:08:00;;;;;;;5.53;3.70;;;15.00;99.90;;;;;;5015952;28;20084;-64
2022/08/30 00:10:28;;;;;;;6.15;5.18;;;15.00;99.90;;;;;;5033485;28;20060;-64
2022/08/30 00:12:54;;;;;;;7.65;4.70;;;15.10;99.90;;;;;;5016265;28;20399;-64
2022/08/30 00:15:21;;;;;;;6.97;4.50;;;14.90;99.90;;;;;;5015605;28;20083;-63
2022/08/30 00:17:47;;;;;;;5.22;4.13;;;14.90;99.90;;;;;;5015739;28;20068;-64
2022/08/30 00:20:17;;;;;;;5.55;3.78;;;14.90;99.90;;;;;;5033326;28;20033;-64
2022/08/30 00:22:43;;;;;;;5.07;4.57;;;15.00;99.90;;;;;;5015776;28;20041;-64
2022/08/30 00:25:11;;;;;;;6.88;4.32;;;14.90;99.90;;;;;;5033346;28;20077;-64
2022/08/30 00:27:37;;;;;;;7.18;4.75;;;15.00;99.90;;;;;;5015230;28;20443;-64
2022/08/30 00:30:03;;;;;;;4.78;4.28;;;15.00;99.90;;;;;;5015428;28;20045;-64
2022/08/30 00:32:29;;;;;;;7.00;5.25;;;15.00;99.90;;;;;;5033254;28;20041;-64
2022/08/30 00:34:54;;;;;;;5.68;4.80;;;15.00;99.90;;;;;;5015418;28;20483;-65
2022/08/30 00:37:20;;;;;;;7.45;5.55;;;15.00;99.90;;;;;;5033146;28;20446;-64
2022/08/30 00:39:47;;;;;;;7.15;5.00;;;15.10;99.90;;;;;;5033042;28;20125;-65
2022/08/30 00:42:13;;;;;;;5.63;4.95;;;15.20;99.90;;;;;;5015279;28;20577;-64
2022/08/30 00:44:39;;;;;;;9.63;5.22;;;15.00;99.90;;;;;;5033198;28;20112;-65
2022/08/30 00:47:05;;;;;;;6.10;5.32;;;15.20;99.90;;;;;;5015536;28;20033;-65
2022/08/30 00:49:33;;;;;;;6.57;5.45;;;15.20;99.90;;;;;;5015296;28;20499;-64
2022/08/30 00:52:01;;;;;;;5.93;4.80;;;15.10;99.90;;;;;;5033103;28;20123;-64
2022/08/30 00:54:28;;;;;;;7.40;5.05;;;15.00;99.90;;;;;;5032803;28;20069;-64
2022/08/30 00:56:54;;;;;;;6.47;5.35;;;15.40;99.90;;;;;;5007826;28;20033;-64
2022/08/30 00:59:23;;;;;;;6.20;5.57;;;15.20;99.90;;;;;;5032969;28;20067;-64
2022/08/30 01:01:49;;;;;;;11.13;5.25;;;15.10;99.90;;;;;;5015006;28;20545;-64
2022/08/30 01:04:15;;;;;;;6.57;5.13;;;15.20;99.90;;;;;;5032643;28;20081;-64
2022/08/30 01:06:41;;;;;;;7.90;5.25;;;15.20;99.90;;;;;;5011358;28;20073;-65
2022/08/30 01:09:07;;;;;;;6.60;4.95;;;15.30;99.90;;;;;;5029384;28;20491;-64
2022/08/30 01:11:36;;;;;;;6.65;5.07;;;15.20;99.90;;;;;;5032770;28;20053;-64
2022/08/30 01:14:03;;;;;;;7.68;4.90;;;15.30;99.90;;;;;;5032727;28;20045;-64
2022/08/30 01:16:32;;;;;;;7.85;5.13;;;15.20;99.90;;;;;;5015144;28;20038;-64
2022/08/30 01:18:59;;;;;;;7.53;5.20;;;15.00;99.90;;;;;;5032649;28;20045;-65
2022/08/30 01:21:43;;;;;;;7.10;4.75;;;15.30;99.90;;;;;;5032604;28;20037;-64
2022/08/30 01:24:09;;;;;;;6.97;5.43;;;15.30;99.90;;;;;;5015040;28;20513;-64
2022/08/30 01:26:35;;;;;;;6.63;4.55;;;15.20;99.90;;;;;;5032638;28;20037;-65
2022/08/30 01:29:06;;;;;;;7.95;4.55;;;15.10;99.90;;;;;;5032629;28;20033;-64
2022/08/30 01:31:35;;;;;;;8.48;4.80;;;15.30;99.90;;;;;;5032367;28;20036;-65
2022/08/30 01:34:04;;;;;;;7.72;4.85;;;15.20;99.90;;;;;;5032547;28;20472;-64
2022/08/30 01:36:30;;;;;;;12.77;5.55;;;15.30;99.90;;;;;;5032514;28;20038;-64
2022/08/30 01:38:57;;;;;;;6.75;4.32;;;15.10;99.90;;;;;;5033839;28;20112;-64
2022/08/30 01:41:34;;;;;;;9.38;5.65;;;15.20;99.90;;;;;;5036496;28;20045;-64
2022/08/30 01:44:03;;;;;;;7.60;4.90;;;15.20;99.90;;;;;;5018709;28;20087;-65
2022/08/30 01:46:34;;;;;;;6.15;4.88;;;15.40;99.90;;;;;;5018477;28;20133;-64
2022/08/30 01:49:02;;;;;;;8.75;5.40;;;15.10;99.90;;;;;;5036300;28;20427;-64
2022/08/30 01:51:29;;;;;;;6.20;4.50;;;15.30;99.90;;;;;;5035972;28;20407;-64
2022/08/30 01:53:55;;;;;;;6.53;4.70;;;15.10;99.90;;;;;;5036198;28;20084;-64
2022/08/30 01:56:22;;;;;;;9.60;5.10;;;15.00;99.90;;;;;;5036264;28;20069;-64
2022/08/30 01:58:48;;;;;;;7.47;4.97;;;15.20;99.90;;;;;;5018494;28;20439;-64
2022/08/30 02:01:18;;;;;;;6.75;4.68;;;15.00;99.90;;;;;;5035963;28;20041;-64
2022/08/30 02:03:44;;;;;;;10.40;5.30;;;14.80;99.90;;;;;;5035745;28;20128;-64
2022/08/30 02:06:13;;;;;;;6.75;4.95;;;15.10;99.90;;;;;;5018060;28;20053;-64
2022/08/30 02:08:39;;;;;;;9.52;5.35;;;14.90;99.90;;;;;;5035922;28;20045;-64
2022/08/30 02:11:06;;;;;;;7.15;4.85;;;14.70;99.90;;;;;;5017958;28;20376;-64
2022/08/30 02:13:33;;;;;;;12.75;5.68;;;14.90;99.90;;;;;;5018338;28;20117;-65
2022/08/30 02:15:59;;;;;;;7.60;4.90;;;15.30;99.90;;;;;;5035679;28;20398;-64
2022/08/30 02:18:25;;;;;;;7.57;4.80;;;14.90;99.90;;;;;;5035700;28;20116;-63
2022/08/30 02:20:51;;;;;;;7.90;4.50;;;14.80;99.90;;;;;;5035724;28;20034;-64
2022/08/30 02:23:17;;;;;;;7.63;4.90;;;14.80;99.90;;;;;;5035728;28;20487;-64
2022/08/30 02:25:43;;;;;;;10.07;4.95;;;14.90;99.90;;;;;;5035719;28;20037;-64
2022/08/30 02:28:10;;;;;;;8.95;4.90;;;14.90;99.90;;;;;;5017942;28;20043;-64
2022/08/30 02:30:35;;;;;;;9.65;5.10;;;14.70;99.90;;;;;;5017796;28;20080;-64
2022/08/30 02:33:01;;;;;;;7.75;4.28;;;14.80;99.90;;;;;;5035349;28;20057;-64
2022/08/30 02:35:27;;;;;;;7.72;4.90;;;14.80;99.90;;;;;;5017646;28;20042;-65
2022/08/30 02:37:52;;;;;;;5.93;3.78;;;14.70;99.90;;;;;;5035390;28;20033;-64
2022/08/30 02:40:19;;;;;;;6.10;4.35;;;14.80;99.90;;;;;;5035412;28;20036;-65
2022/08/30 02:42:45;;;;;;;5.65;4.90;;;15.00;99.90;;;;;;5017491;28;20037;-64
2022/08/30 02:45:11;;;;;;;6.97;4.40;;;14.60;99.90;;;;;;5017581;28;20117;-64
2022/08/30 02:47:36;;;;;;;8.00;5.13;;;14.70;99.90;;;;;;5035324;28;20522;-64
2022/08/30 02:50:04;;;;;;;6.28;5.07;;;14.50;99.90;;;;;;5034927;28;20045;-64
2022/08/30 02:52:29;;;;;;;6.22;4.80;;;14.50;99.90;;;;;;5035200;28;20387;-64
2022/08/30 02:54:55;;;;;;;8.02;4.35;;;14.40;99.90;;;;;;5017276;28;20038;-64
2022/08/30 02:57:21;;;;;;;5.20;4.13;;;14.40;99.90;;;;;;5035006;28;20040;-64
2022/08/30 02:59:47;;;;;;;4.40;4.00;;;14.40;99.90;;;;;;5017390;28;20056;-64
2022/08/30 03:02:14;;;;;;;4.55;4.05;;;14.30;99.90;;;;;;5034768;28;20111;-64
2022/08/30 03:04:39;;;;;;;5.53;4.22;;;14.50;99.90;;;;;;5016795;28;20057;-64
2022/08/30 03:07:07;;;;;;;4.53;3.65;;;14.20;99.90;;;;;;5016639;28;20044;-64
2022/08/30 03:09:33;;;;;;;7.05;4.82;;;14.20;99.90;;;;;;5016955;28;20081;-64
2022/08/30 03:11:59;;;;;;;4.70;4.07;;;14.40;99.90;;;;;;5034621;28;20076;-64
2022/08/30 03:14:25;;;;;;;5.72;4.57;;;14.30;99.90;;;;;;5016903;28;20495;-64
2022/08/30 03:16:50;;;;;;;5.53;4.82;;;14.20;99.90;;;;;;5017095;28;20041;-64
2022/08/30 03:19:17;;;;;;;4.95;4.07;;;14.30;99.90;;;;;;5034319;28;20087;-64
2022/08/30 03:21:43;;;;;;;5.70;4.15;;;14.20;99.90;;;;;;5016621;28;20091;-64
2022/08/30 03:24:09;;;;;;;4.88;4.13;;;14.10;99.90;;;;;;5034467;28;20091;-64
2022/08/30 03:26:35;;;;;;;7.05;4.35;;;14.30;99.90;;;;;;5016668;28;20451;-64
2022/08/30 03:29:01;;;;;;;6.90;3.78;;;14.30;99.90;;;;;;5034223;28;20033;-63
2022/08/30 03:31:27;;;;;;;3.88;3.47;;;14.00;99.90;;;;;;5034107;28;20071;-64
2022/08/30 03:33:52;;;;;;;5.10;3.80;;;14.10;99.90;;;;;;5034087;28;20046;-64
2022/08/30 03:36:18;;;;;;;4.53;3.63;;;14.00;99.90;;;;;;5034040;28;20124;-64
2022/08/30 03:38:44;;;;;;;3.30;2.60;;;13.80;99.90;;;;;;5034273;28;20041;-64
2022/08/30 03:41:10;;;;;;;3.80;2.60;;;13.60;99.90;;;;;;5033983;28;20132;-64
2022/08/30 03:43:36;;;;;;;9.52;2.67;;;13.60;99.90;;;;;;5034077;28;20045;-64
2022/08/30 03:46:02;;;;;;;4.68;2.15;;;13.60;99.90;;;;;;5033806;28;20503;-64
2022/08/30 03:48:28;;;;;;;21.05;2.53;;;13.40;99.90;;;;;;5016400;28;20044;-64
2022/08/30 03:50:54;;;;;;;58.25;4.28;;;13.00;99.90;;;;;;5033751;28;20033;-64
2022/08/30 03:53:20;;;;;;;5.15;2.70;;;13.40;99.90;;;;;;5015959;28;20485;-64
2022/08/30 03:55:46;;;;;;;6.05;2.88;;;13.00;99.90;;;;;;5016354;28;20403;-64
2022/08/30 03:58:12;;;;;;;2.88;2.42;;;13.30;99.90;;;;;;5016000;28;20124;-64
2022/08/30 04:00:37;;;;;;;2.53;2.28;;;12.90;99.90;;;;;;5015877;28;20066;-64
2022/08/30 04:03:03;;;;;;;2.78;2.30;;;12.90;99.90;;;;;;5033292;28;20388;-63
2022/08/30 04:05:29;;;;;;;3.17;2.65;;;13.30;99.90;;;;;;4999386;28;20136;-64
2022/08/30 04:07:55;;;;;;;2.58;1.80;;;13.30;99.90;;;;;;5015767;28;20096;-64
2022/08/30 04:10:21;;;;;;;2.65;2.20;;;13.40;99.90;;;;;;5015676;28;20053;-64
2022/08/30 04:12:47;;;;;;;6.43;3.20;;;13.40;99.90;;;;;;5033638;28;20042;-64
2022/08/30 04:15:14;;;;;;;4.00;2.63;;;13.20;99.90;;;;;;5015714;28;20057;-63
2022/08/30 04:17:39;;;;;;;2.90;2.70;;;13.30;99.90;;;;;;5015829;28;20411;-64
2022/08/30 04:20:05;;;;;;;5.82;3.45;;;13.10;99.90;;;;;;5033252;28;20037;-64
2022/08/30 04:22:31;;;;;;;4.35;3.80;;;13.40;99.90;;;;;;5033333;28;20051;-64
2022/08/30 04:24:57;;;;;;;4.40;3.95;;;13.30;99.90;;;;;;5033336;28;20041;-64
2022/08/30 04:27:22;;;;;;;5.63;4.15;;;13.30;99.90;;;;;;5033324;28;20045;-64
2022/08/30 04:29:48;;;;;;;4.82;4.32;;;13.40;99.90;;;;;;5015588;28;20115;-64
2022/08/30 04:32:15;;;;;;;5.60;4.70;;;13.40;99.90;;;;;;5033045;28;20033;-64
2022/08/30 04:34:41;;;;;;;7.57;4.22;;;13.30;99.90;;;;;;5032970;28;20084;-64
2022/08/30 04:37:07;;;;;;;6.50;4.20;;;13.20;99.90;;;;;;5015384;28;20383;-64
2022/08/30 04:39:33;;;;;;;5.55;4.20;;;13.20;99.90;;;;;;5033260;28;20037;-64
2022/08/30 04:41:58;;;;;;;6.65;4.57;;;13.40;99.90;;;;;;5033303;28;20041;-64
2022/08/30 04:44:26;;;;;;;5.55;4.40;;;13.20;99.90;;;;;;5032928;28;20048;-64
2022/08/30 04:46:52;;;;;;;6.32;4.80;;;13.20;99.90;;;;;;5015434;28;20466;-63
2022/08/30 04:49:18;;;;;;;7.63;4.90;;;13.20;99.90;;;;;;5015324;28;20041;-64
2022/08/30 04:51:43;;;;;;;5.15;4.53;;;13.30;99.90;;;;;;5033070;28;20036;-64
2022/08/30 04:54:09;;;;;;;7.40;4.88;;;13.20;99.90;;;;;;5033283;28;20445;-64
2022/08/30 04:56:35;;;;;;;8.70;4.70;;;13.30;99.90;;;;;;5015061;28;20046;-64
2022/08/30 04:59:01;;;;;;;5.95;4.18;;;13.20;99.90;;;;;;5032850;28;20045;-64
2022/08/30 05:01:30;;;;;;;6.13;4.43;;;13.20;99.90;;;;;;5032615;28;20046;-63
2022/08/30 05:03:56;;;;;;;4.85;4.28;;;13.20;99.90;;;;;;5015038;28;20503;-64
2022/08/30 05:06:24;;;;;;;6.90;4.95;;;13.00;99.90;;;;;;5032912;28;20042;-64
2022/08/30 05:08:51;;;;;;;5.72;4.88;;;13.20;99.90;;;;;;5014944;28;20049;-64
2022/08/30 05:11:17;;;;;;;8.40;5.50;;;13.30;99.90;;;;;;5014987;28;20056;-64
2022/08/30 05:13:44;;;;;;;5.10;4.57;;;13.20;99.90;;;;;;5035443;28;20041;-64
2022/08/30 05:16:12;;;;;;;5.40;3.80;;;13.20;99.90;;;;;;5019399;28;20053;-63
2022/08/30 05:18:38;;;;;;;5.30;4.63;;;;;;;;;;5036983;28;20045;-63
2022/08/30 05:21:08;;;;;;;5.18;3.90;;;13.20;99.90;;;;;;5036621;28;20083;-64
2022/08/30 05:23:34;;;;;;;5.18;4.07;;;13.30;99.90;;;;;;5019036;28;20101;-64
2022/08/30 05:26:08;;;;;;;6.03;3.80;;;13.30;99.90;;;;;;5018844;28;20041;-63
2022/08/30 05:28:34;;;;;;;4.47;3.65;;;13.30;99.90;;;;;;5036680;28;20117;-64
2022/08/30 05:31:00;;;;;;;6.18;4.50;;;13.40;99.90;;;;;;5036355;28;20052;-64
2022/08/30 05:33:26;;;;;;;6.25;4.57;;;13.40;99.90;;;;;;5018675;28;20482;-64
2022/08/30 05:35:51;;;;;;;6.63;4.40;;;13.50;99.90;;;;;;5036377;28;20037;-64
2022/08/30 05:38:17;;;;;;;6.65;4.88;;;13.30;99.90;;;;;;5018788;28;20071;-64
2022/08/30 05:40:43;;;;;;;5.28;4.47;;;13.50;99.90;;;;;;5036163;28;20088;-64
2022/08/30 05:43:10;;;;;;;5.53;4.03;;;13.50;99.90;;;;;;5036149;28;20038;-64
2022/08/30 05:45:36;;;;;;;5.38;4.13;;;13.70;99.90;;;;;;5036101;28;20056;-64
2022/08/30 05:48:03;;;;;;;6.32;4.43;;;13.60;99.90;;;;;;5018414;28;20045;-64
2022/08/30 05:50:28;;;;;;;6.07;5.00;;;13.60;99.90;;;;;;5036320;28;20075;-64
2022/08/30 05:52:54;;;;;;;7.45;5.93;;;13.80;99.90;;;;;;5035990;28;20041;-64
2022/08/30 05:55:19;;;;;;;7.95;5.85;;;13.70;99.90;;;;;;5035965;28;20037;-64
2022/08/30 05:57:45;;;;;;;10.27;5.95;;;13.90;99.90;;;;;;5035964;28;20037;-64
2022/08/30 06:00:14;;;;;;;8.85;6.53;;;14.00;99.90;;;;;;5035814;28;20093;-64
2022/08/30 06:02:40;;;;;;;9.68;7.45;;;14.00;99.90;;;;;;5035950;28;20041;-64
2022/08/30 06:05:06;;;;;;;9.98;6.60;;;14.20;99.90;;;;;;5035833;28;20052;-64
2022/08/30 06:07:51;;;;;;;8.52;6.18;;;14.20;99.90;;;;;;5030765;28;20048;-65
2022/08/30 06:10:16;;;;;;;8.55;6.40;;;14.40;99.90;;;;;;5035717;28;20042;-64
2022/08/30 06:12:42;;;;;;;8.63;6.10;;;14.60;99.90;;;;;;5035824;28;20063;-64
2022/08/30 06:15:08;;;;;;;11.57;6.35;;;14.40;99.90;;;;;;5018014;28;20049;-64
2022/08/30 06:17:33;;;;;;;8.85;6.20;;;14.80;99.90;;;;;;5035675;28;20045;-64
2022/08/30 06:19:59;;;;;;;8.02;5.53;;;15.40;99.90;;;;;;5035610;28;20044;-64
2022/08/30 06:22:24;;;;;;;6.55;4.60;;;15.50;99.90;;;;;;5017634;28;20484;-64
2022/08/30 06:24:50;;;;;;;9.90;5.15;;;15.50;99.90;;;;;;5035133;28;20041;-64
2022/08/30 06:27:15;;;;;;;6.40;4.30;;;16.00;99.90;;;;;;5016663;28;20670;-63
2022/08/30 06:29:42;;;;;;;6.88;4.20;;;;;;;;;;5035470;28;20037;-64
2022/08/30 06:32:07;;;;;;;8.48;3.97;;;16.30;99.90;;;;;;5035275;28;20041;-64
2022/08/30 06:34:33;;;;;;;8.07;4.07;;;16.60;99.90;;;;;;5017402;28;20098;-64
2022/08/30 06:36:58;;;;;;;4.78;2.97;;;16.60;99.90;;;;;;5035175;28;20045;-64
2022/08/30 06:39:24;;;;;;;4.95;3.20;;;16.80;99.90;;;;;;5016549;28;20038;-64
2022/08/30 06:41:49;;;;;;;3.85;2.85;;;16.80;99.90;;;;;;5032036;28;20033;-64
2022/08/30 06:44:16;;;;;;;4.53;2.70;;;16.70;99.90;;;;;;5018012;28;20117;-65
2022/08/30 06:46:42;;;;;;;4.78;2.50;;;17.00;99.90;;;;;;4999232;28;20056;-64
2022/08/30 06:49:07;;;;;;;4.55;2.72;;;17.20;99.90;;;;;;5016052;28;20037;-64
2022/08/30 06:51:36;;;;;;;5.80;2.60;;;17.30;99.90;;;;;;5018280;28;20046;-64
2022/08/30 06:54:04;;;;;;;4.60;2.38;;;17.50;99.90;;;;;;5015187;28;20078;-64
2022/08/30 06:56:30;;;;;;;2.83;1.75;;;17.40;99.90;;;;;;5018938;28;20042;-64
2022/08/30 06:58:56;;;;;;;4.75;1.80;;;17.50;99.90;;;;;;4998981;28;20403;-64
2022/08/30 07:01:27;;;;;;;4.53;2.00;;;17.80;99.90;;;;;;5003778;28;20034;-64
2022/08/30 07:03:54;;;;;;;4.82;2.20;;;17.60;99.90;;;;;;5010540;28;20085;-64
2022/08/30 07:06:21;;;;;;;6.25;2.15;;;17.90;99.90;;;;;;4998722;28;20061;-64
2022/08/30 07:08:46;;;;;;;2.83;1.75;;;18.00;99.90;;;;;;4995739;28;20042;-64
2022/08/30 07:11:12;;;;;;;4.93;1.77;;;17.70;99.90;;;;;;4999867;28;20041;-64
2022/08/30 07:13:38;;;;;;;6.05;2.58;;;17.90;99.90;;;;;;5008523;28;20073;-64
2022/08/30 07:16:13;;;;;;;4.20;1.30;;;18.00;99.90;;;;;;5003932;28;20401;-64
2022/08/30 07:18:53;;;;;;;3.55;1.50;;;17.80;99.90;;;;;;4998179;28;20034;-65
2022/08/30 07:21:34;;;;;;;3.17;1.30;;;18.30;99.90;;;;;;4978986;28;20045;-65
2022/08/30 07:24:00;;;;;;;5.07;1.27;;;18.20;99.90;;;;;;5006666;28;20391;-64
2022/08/30 07:26:40;;;;;;;8.85;1.63;;;18.10;99.90;;;;;;5013739;28;20120;-65
2022/08/30 07:29:07;;;;;;;9.35;1.33;;;18.00;99.90;;;;;;5009948;28;20030;-64
2022/08/30 07:31:34;;;;;;;5.60;1.25;;;18.20;99.90;;;;;;5013270;28;20041;-65
2022/08/30 07:34:01;;;;;;;9.43;1.60;;;18.20;99.90;;;;;;5008196;28;20493;-64
2022/08/30 07:36:27;;;;;;;3.88;1.55;;;18.10;99.90;;;;;;5009982;28;20050;-64
2022/08/30 07:38:53;;;;;;;4.65;1.70;;;18.30;99.90;;;;;;5014312;28;20652;-65
2022/08/30 07:41:23;;;;;;;7.32;1.23;;;18.20;99.90;;;;;;5014081;28;20060;-64
2022/08/30 07:43:49;;;;;;;5.10;1.15;;;18.50;99.90;;;;;;5012636;28;20038;-64
2022/08/30 07:46:15;;;;;;;8.20;1.50;;;18.30;99.90;;;;;;5012078;28;20043;-64
2022/08/30 07:48:41;;;;;;;3.15;1.10;;;18.60;99.90;;;;;;5013776;28;20045;-65
2022/08/30 07:51:20;;;;;;;4.50;0.98;;;18.60;99.90;;;;;;5005870;28;20031;-64
2022/08/30 07:53:45;;;;;;;5.63;1.10;;;18.60;99.90;;;;;;5001124;28;20514;-65
2022/08/30 07:56:11;;;;;;;2.03;1.10;;;18.70;99.90;;;;;;5013479;28;20061;-64
2022/08/30 07:58:38;;;;;;;4.70;1.20;;;18.40;99.90;;;;;;5012888;28;20046;-64
2022/08/30 08:01:06;;;;;;;3.35;0.93;;;18.70;99.90;;;;;;5012505;28;20458;-65
2022/08/30 08:03:32;;;;;;;4.72;1.05;;;19.00;99.90;;;;;;5013814;28;20064;-64
2022/08/30 08:06:01;;;;;;;4.10;1.35;;;19.10;99.90;;;;;;5033903;28;20539;-65
2022/08/30 08:08:27;;;;;;;3.05;1.02;;;19.20;99.90;;;;;;5033595;28;20052;-65
2022/08/30 08:10:53;;;;;;;7.40;1.20;;;18.90;99.90;;;;;;5033476;28;20029;-64
2022/08/30 08:13:18;;;;;;;5.35;1.63;;;18.90;99.90;;;;;;5033598;28;20045;-64
2022/08/30 08:15:44;;;;;;;2.88;1.00;;;19.10;99.90;;;;;;5015877;28;20069;-64
2022/08/30 08:18:10;;;;;;;1.90;0.95;;;19.10;99.90;;;;;;5015792;28;20041;-64
2022/08/30 08:20:35;;;;;;;2.33;1.27;;;19.00;99.90;;;;;;5033504;28;20392;-64
2022/08/30 08:23:01;;;;;;;4.72;1.30;;;19.20;99.90;;;;;;4999578;28;20040;-64
2022/08/30 08:25:27;;;;;;;3.97;1.15;;;19.30;99.90;;;;;;5033405;28;20415;-64
2022/08/30 08:27:53;;;;;;;2.75;0.82;;;19.50;99.90;;;;;;5033411;28;20033;-64
2022/08/30 08:30:20;;;;;;;5.63;0.93;;;19.30;99.90;;;;;;5033424;28;20055;-64
2022/08/30 08:32:47;;;;;;;2.58;0.82;;;19.20;99.90;;;;;;5033097;28;20403;-64
2022/08/30 08:35:13;;;;;;;7.20;1.10;;;19.30;99.90;;;;;;5015557;28;20041;-65
2022/08/30 08:37:39;;;;;;;3.35;2.17;;;19.40;99.90;;;;;;5015562;28;20076;-64
2022/08/30 08:40:06;;;;;;;5.43;1.73;;;19.30;99.90;;;;;;5033384;28;20032;-64
2022/08/30 08:42:37;;;;;;;9.32;1.40;;;19.60;99.90;;;;;;5015677;28;20476;-64
2022/08/30 08:45:13;;;;;;;5.15;1.42;;;19.60;99.90;;;;;;5002159;28;20041;-64
2022/08/30 08:48:00;;;;;;;2.65;1.73;;;19.70;99.90;;;;;;5015189;28;20056;-64
2022/08/30 08:50:26;;;;;;;2.08;1.05;;;19.80;99.90;;;;;;5015306;28;20051;-64
2022/08/30 08:55:57;;;;;;;4.15;1.08;;;19.70;99.90;;;;;;5032816;28;20061;-64
2022/08/30 08:58:25;;;;;;;1.95;1.00;;;20.00;99.90;;;;;;5032983;28;20053;-64
2022/08/30 09:00:52;;;;;;;2.35;0.90;;;20.00;99.90;;;;;;5015109;28;20099;-64
2022/08/30 09:03:24;;;;;;;2.38;0.70;;;20.00;99.90;;;;;;5032750;28;20042;-64
2022/08/30 09:05:50;;;;;;;2.40;0.90;;;19.90;99.90;;;;;;5015120;28;20052;-64
2022/08/30 09:08:18;;;;;;;3.92;1.02;;;20.10;99.90;;;;;;5032772;28;20108;-64
2022/08/30 09:10:49;;;;;;;1.40;1.02;;;20.10;99.90;;;;;;4997306;28;20109;-64
2022/08/30 09:13:15;;;;;;;3.28;1.35;;;20.00;99.90;;;;;;5006092;28;20037;-64
2022/08/30 09:15:40;;;;;;;2.83;0.80;;;20.20;99.90;;;;;;5032533;28;20107;-64
2022/08/30 09:18:10;;;;;;;2.10;0.80;;;20.40;99.90;;;;;;5032571;28;20103;-64
2022/08/30 09:20:46;;;;;;;2.05;0.98;;;20.50;99.90;;;;;;5014855;28;20037;-64
2022/08/30 09:23:14;;;;;;;3.13;0.82;;;20.70;99.90;;;;;;5032539;28;20105;-64
2022/08/30 09:26:04;;;;;;;1.73;0.98;;;20.90;99.90;;;;;;5014874;28;20565;-64
2022/08/30 09:28:33;;;;;;;6.03;1.30;;;21.10;99.90;;;;;;5015196;28;20128;-64
2022/08/30 09:31:05;;;;;;;4.97;1.38;;;21.20;99.90;;;;;;5032517;28;20116;-64
2022/08/30 09:33:31;;;;;;;4.40;0.82;;;21.40;99.90;;;;;;5032467;28;20041;-65
2022/08/30 09:36:13;;;;;;;2.88;0.85;;;21.50;99.90;;;;;;5032438;28;20041;-64
2022/08/30 09:38:39;;;;;;;3.00;0.70;;;21.50;99.90;;;;;;5014953;28;20514;-64
2022/08/30 09:41:26;;;;;;;3.50;0.80;;;21.40;99.90;;;;;;5014748;28;20038;-64
2022/08/30 09:44:15;;;;;;;3.50;0.88;;;21.20;99.90;;;;;;5032018;28;20447;-64
2022/08/30 09:46:49;;;;;;;1.20;0.60;;;21.30;99.90;;;;;;5031323;28;20033;-65
2022/08/30 09:49:40;;;;;;;16.35;2.05;;;21.50;99.90;;;;;;5032370;28;20080;-65
2022/08/30 09:52:42;;;;;;;1.65;0.60;;;21.70;99.90;;;;;;5031161;28;20034;-65
2022/08/30 09:55:35;;;;;;;2.35;0.77;;;21.70;99.90;;;;;;5032130;28;20068;-65
2022/08/30 09:58:09;;;;;;;2.65;0.68;;;21.80;99.90;;;;;;5014422;28;20045;-65
2022/08/30 10:00:43;;;;;;;2.05;0.98;;;22.10;99.90;;;;;;5016753;28;20488;-65
2022/08/30 10:03:35;;;;;;;1.55;0.70;;;22.10;99.90;;;;;;5035884;28;20038;-65
2022/08/30 10:06:19;;;;;;;3.80;0.80;;;22.10;99.90;;;;;;5023340;28;20053;-65
2022/08/30 10:09:02;;;;;;;2.55;0.77;;;22.20;99.90;;;;;;5018036;28;20062;-65
2022/08/30 10:11:50;;;;;;;1.83;0.52;;;22.20;99.90;;;;;;5035742;28;20500;-65
2022/08/30 10:14:49;;;;;;;2.20;0.47;;;22.70;99.90;;;;;;5017913;28;20092;-65
2022/08/30 10:17:41;;;;;;;1.70;0.63;;;22.50;99.90;;;;;;4997550;28;20072;-64
2022/08/30 10:20:15;;;;;;;2.85;0.65;;;22.50;99.90;;;;;;4995768;28;20057;-65
2022/08/30 10:22:51;;;;;;;1.63;0.50;;;22.70;99.90;;;;;;5035500;28;20369;-65
2022/08/30 10:25:43;;;;;;;1.95;0.70;;;22.70;99.90;;;;;;5035655;28;20056;-65
2022/08/30 10:28:34;;;;;;;3.72;0.98;;;22.40;99.90;;;;;;5028491;28;20052;-65
2022/08/30 10:31:05;;;;;;;1.50;0.52;;;22.20;99.90;;;;;;5017643;28;20041;-65
2022/08/30 10:33:47;;;;;;;2.78;0.50;;;22.10;99.90;;;;;;5017618;28;20047;-65
2022/08/30 10:36:14;;;;;;;4.60;0.73;;;22.40;99.90;;;;;;5035213;28;20403;-65
2022/08/30 10:38:48;;;;;;;1.80;0.63;;;22.30;99.90;;;;;;5035477;28;20037;-65
2022/08/30 10:41:38;;;;;;;3.35;0.70;;;22.50;99.90;;;;;;5035199;28;20037;-65
2022/08/30 10:44:28;;;;;;;1.48;0.50;;;22.20;99.90;;;;;;5035421;28;20033;-65
2022/08/30 10:47:00;;;;;;;2.85;0.70;;;22.30;99.90;;;;;;5022939;28;20108;-65
2022/08/30 10:49:28;;;;;;;4.32;0.65;;;22.30;99.90;;;;;;5034987;28;20400;-65
2022/08/30 10:52:22;;;;;;;2.13;0.65;;;22.20;99.90;;;;;;5034686;28;20033;-64
2022/08/30 10:54:57;;;;;;;3.45;0.82;;;22.30;99.90;;;;;;5017118;28;20041;-65
2022/08/30 10:57:23;;;;;;;1.13;0.32;;;22.00;99.90;;;;;;5017095;28;20049;-65
2022/08/30 11:00:11;;;;;;;1.95;0.80;;;22.10;99.90;;;;;;5016903;28;20094;-65
2022/08/30 11:02:48;;;;;;;2.03;0.50;;;22.10;99.90;;;;;;5017163;28;20110;-65
2022/08/30 11:05:26;;;;;;;3.70;0.40;;;22.00;99.90;;;;;;5034512;28;20064;-65
2022/08/30 11:08:10;;;;;;;3.40;0.85;;;22.10;99.90;;;;;;5034611;28;20120;-64
2022/08/30 11:10:56;;;;;;;1.60;0.70;;;21.90;99.90;;;;;;5016754;28;20095;-65
2022/08/30 11:13:25;;;;;;;3.67;0.50;;;21.90;99.90;;;;;;4987001;28;20076;-65
2022/08/30 11:16:14;;;;;;;2.35;0.73;;;21.60;99.90;;;;;;5034378;28;20049;-65
2022/08/30 11:18:42;;;;;;;3.97;1.00;;;21.90;99.90;;;;;;5016833;28;20046;-65
2022/08/30 11:21:31;;;;;;;2.63;0.40;;;22.00;99.90;;;;;;5016474;28;20049;-65
2022/08/30 11:24:09;;;;;;;1.88;0.38;;;22.10;99.90;;;;;;5034251;28;20045;-65
2022/08/30 11:26:49;;;;;;;2.13;0.38;;;22.00;99.90;;;;;;5029049;28;20214;-64
2022/08/30 11:29:33;;;;;;;1.33;0.50;;;21.90;99.90;;;;;;5022772;28;20040;-64
2022/08/30 11:32:23;;;;;;;4.20;0.65;;;22.20;99.90;;;;;;5000792;28;20045;-65
2022/08/30 11:34:54;;;;;;;2.72;0.70;;;21.90;99.90;;;;;;5000928;28;20049;-64
2022/08/30 11:37:36;;;;;;;3.05;0.60;;;21.70;99.90;;;;;;5025744;28;20081;-64
2022/08/30 11:40:25;;;;;;;3.05;0.70;;;21.70;99.90;;;;;;5007582;28;20038;-64
2022/08/30 11:42:53;;;;;;;1.25;0.43;;;21.80;99.90;;;;;;4993432;28;20044;-64
2022/08/30 11:45:22;;;;;;;2.60;0.50;;;23.20;99.90;;;;;;5019026;28;20412;-64
2022/08/30 11:47:49;;;;;;;1.83;0.75;;;21.90;99.90;;;;;;5002504;28;20607;-64
2022/08/30 11:50:27;;;;;;;3.00;0.57;;;24.10;99.90;;;;;;4999727;28;20045;-64
2022/08/30 11:53:02;;;;;;;1.92;0.70;;;21.70;99.90;;;;;;5015014;28;20129;-64
2022/08/30 11:55:54;;;;;;;2.67;0.60;;;21.70;99.90;;;;;;4999757;28;20492;-65
2022/08/30 11:58:47;;;;;;;2.25;0.55;;;21.70;99.90;;;;;;5015850;28;20038;-64
2022/08/30 12:01:30;;;;;;;1.00;0.40;;;21.60;99.90;;;;;;5003076;28;20041;-64
2022/08/30 12:04:16;;;;;;;2.35;0.75;;;21.90;99.90;;;;;;5021248;28;20076;-65
2022/08/30 12:06:46;;;;;;;2.28;0.52;;;22.00;99.90;;;;;;4989382;28;20547;-65
2022/08/30 12:09:24;;;;;;;5.07;0.68;;;21.80;99.90;;;;;;5000390;28;21667;-64
2022/08/30 12:12:01;;;;;;;6.75;0.68;;;22.00;99.90;;;;;;5004907;28;20041;-64
2022/08/30 12:14:50;;;;;;;3.20;0.50;;;22.00;99.90;;;;;;5002023;28;20059;-64
2022/08/30 12:20:29;;;;;;;1.38;0.60;;;22.00;99.90;;;;;;5002244;28;20046;-65
2022/08/30 12:22:56;;;;;;;1.35;0.40;;;21.90;99.90;;;;;;5015166;28;20180;-64
2022/08/30 12:25:32;;;;;;;1.77;0.40;;;21.90;99.90;;;;;;5026663;28;20507;-65
2022/08/30 12:28:34;;;;;;;2.05;0.60;;;22.00;99.90;;;;;;5020352;28;20445;-65
2022/08/30 12:31:11;;;;;;;1.73;0.60;;;22.10;99.90;;;;;;4980947;28;20057;-65
2022/08/30 12:33:44;;;;;;;1.52;0.38;;;22.00;99.90;;;;;;4999363;28;20470;-64
2022/08/30 12:36:28;;;;;;;2.42;0.70;;;22.10;99.90;;;;;;5006002;28;20561;-64
2022/08/30 12:39:08;;;;;;;3.72;0.55;;;22.20;99.90;;;;;;4999811;28;20124;-65
2022/08/30 12:41:34;;;;;;;3.90;0.50;;;22.20;99.90;;;;;;5004382;28;20156;-65
2022/08/30 12:44:00;;;;;;;2.80;0.60;;;22.00;99.90;;;;;;5020535;28;20072;-65
2022/08/30 12:46:27;;;;;;;1.70;0.40;;;22.10;99.90;;;;;;5018580;28;20041;-65
2022/08/30 12:48:52;;;;;;;1.00;0.50;;;22.00;99.90;;;;;;5017968;28;20124;-65
2022/08/30 12:51:40;;;;;;;1.50;0.70;;;21.90;99.90;;;;;;4998913;28;20464;-65
2022/08/30 12:54:11;;;;;;;1.10;0.70;;;22.10;99.90;;;;;;5017652;28;20057;-64
2022/08/30 12:56:58;;;;;;;1.52;0.40;;;21.90;99.90;;;;;;5003708;28;20160;-65
2022/08/30 13:02:52;;;;;;;2.30;0.60;;;22.20;99.90;;;;;;5640674;22;20057;-65
2022/08/30 13:05:43;;;;;;;2.13;0.80;;;22.20;99.90;;;;;;5014118;28;20061;-65
2022/08/30 13:08:35;;;;;;;4.28;1.10;;;22.40;99.90;;;;;;5014133;28;20041;-65
2022/08/30 13:11:07;;;;;;;1.63;0.50;;;22.20;99.90;;;;;;5014106;28;20048;-65
2022/08/30 13:13:36;;;;;;;3.25;0.40;;;22.20;99.90;;;;;;5031757;28;20496;-65
2022/08/30 13:16:16;;;;;;;4.38;0.60;;;22.30;99.90;;;;;;5031762;28;20033;-65